This is the latest recevied weather packets stored in our database for station/object DK4SDR-10. If no packets are shown the sender has not sent any weather packets the latest 10 day(s).
| Time | Temp. | Humidity | Pressure | Rain* | Wind** | Luminosity | Snow |
|---|---|---|---|---|---|---|---|
| 1778074473 | 25° C | 36% | 1006.1 hPa | - | - | - | - |
| 1778073573 | 25.56° C | 35% | 1006.1 hPa | - | - | - | - |
| 1778072673 | 26.67° C | 34% | 1006 hPa | - | - | - | - |
| 1778051913 | 14.44° C | 63% | 1007.1 hPa | - | - | - | - |
| 1778051012 | 14.44° C | 61% | 1007.1 hPa | - | - | - | - |
| 1778050113 | 13.89° C | 61% | 1007.1 hPa | - | - | - | - |
| 1778049213 | 13.89° C | 60% | 1007.1 hPa | - | - | - | - |
| 1778048313 | 13.89° C | 60% | 1007.1 hPa | - | - | - | - |
| 1778047413 | 13.89° C | 60% | 1007.1 hPa | - | - | - | - |
| 1778046513 | 13.89° C | 60% | 1007.1 hPa | - | - | - | - |
| 1778045613 | 14.44° C | 60% | 1007.2 hPa | - | - | - | - |
| 1778044713 | 14.44° C | 60% | 1007.2 hPa | - | - | - | - |
| 1778043813 | 14.44° C | 60% | 1007.4 hPa | - | - | - | - |
| 1778042913 | 14.44° C | 60% | 1007.4 hPa | - | - | - | - |
| 1778042013 | 14.44° C | 60% | 1007.1 hPa | - | - | - | - |
| 1778041112 | 14.44° C | 60% | 1007.3 hPa | - | - | - | - |
| 1778040213 | 14.44° C | 60% | 1007.1 hPa | - | - | - | - |
| 1778039313 | 15° C | 60% | 1007 hPa | - | - | - | - |
| 1778038412 | 15° C | 60% | 1007.2 hPa | - | - | - | - |
| 1778037512 | 15° C | 59% | 1007.5 hPa | - | - | - | - |
| 1778036613 | 15° C | 59% | 1007.5 hPa | - | - | - | - |
| 1778035712 | 15° C | 59% | 1007.5 hPa | - | - | - | - |
| 1778034813 | 15° C | 59% | 1007.5 hPa | - | - | - | - |
| 1778033913 | 15° C | 59% | 1007.6 hPa | - | - | - | - |
| 1778031212 | 15.56° C | 60% | 1007.4 hPa | - | - | - | - |
* Rain since midnight (hover to see other rain measurements)
** Current wind speed in m/s (hover to see current wind gust speed)